WSSL METAR and TAF | Updated Today

WSSL METAR

Seletar Airport

Observation time: 57 min. ago

WSSL 051900Z 23003KT 180V250 9999 FEW016 BKN160 25/24 Q1008

Need help? Read our tutorial on how to read METARs or read the parsed version below.

Seletar Airport (WSSL) METAR

  • Weather conditions on Sun, 05 Feb 2023 19:00:00 +0000 (57 min. ago):
  • Present conditions: Dry
  • Clouds: A few at 488 meters; broken sky at 4877 meters
  • Visibility: Greater than 10 km
  • Wind: 230 degrees at 3 knots
  • Temperature: 25 celsius
  • Dew point: 24 celsius
  • Pressure: 1008 millibars
  • Remarks: None


Useful to know...

WSSL TAF

Seletar Airport

TAF WSSL 051700Z 0518/0700 35008KT 9999 FEW015 BKN030 TEMPO 0607/0610 3500 TSRA FEW012CB BKN015
Observation time: 2:57 hr. ago
Need help? Read our tutorial on how to read TAFs or read the parsed version below.

Parsed version of TAF for Seletar Airport (WSSL)

  • From 05 February at 18:00 UTC, to day 07 of the month at 00:00 UTC
  • Clouds: A few at 457 meters; broken sky at 914 meters
  • Visibility: Greater than 10 km
  • Wind: 350 degrees at 8
  • Expected to arise temporarily, from 06 February at 07:00 UTC, to day 06 of the month at 10:00 UTC
  • Clouds: A few at 366 meters, cumulonimbus; broken sky at 457 meters
  • Visibility: 3500 meters
  • Other: Thunderstorms rain